sensor_id;sensor_type;location;lat;lon;timestamp;P1;durP1;ratioP1;P2;durP2;ratioP2
37851;SDS011;23691;52.486;4.650;2023-03-01T00:01:12;21.63;;;12.25;;
37851;SDS011;23691;52.486;4.650;2023-03-01T00:03:42;19.73;;;12.38;;
37851;SDS011;23691;52.486;4.650;2023-03-01T00:06:08;19.83;;;11.88;;
37851;SDS011;23691;52.486;4.650;2023-03-01T00:08:34;20.58;;;12.32;;
37851;SDS011;23691;52.486;4.650;2023-03-01T00:11:02;22.20;;;12.95;;
37851;SDS011;23691;52.486;4.650;2023-03-01T00:13:30;21.88;;;12.32;;
37851;SDS011;23691;52.486;4.650;2023-03-01T00:15:55;23.95;;;12.27;;
37851;SDS011;23691;52.486;4.650;2023-03-01T00:18:21;20.00;;;12.25;;
37851;SDS011;23691;52.486;4.650;2023-03-01T00:20:54;20.52;;;12.48;;
37851;SDS011;23691;52.486;4.650;2023-03-01T00:23:20;21.15;;;12.65;;
37851;SDS011;23691;52.486;4.650;2023-03-01T00:25:46;21.48;;;13.25;;
37851;SDS011;23691;52.486;4.650;2023-03-01T00:28:12;16.92;;;7.68;;
37851;SDS011;23691;52.486;4.650;2023-03-01T00:30:37;20.88;;;13.55;;
37851;SDS011;23691;52.486;4.650;2023-03-01T00:33:03;23.83;;;13.40;;
37851;SDS011;23691;52.486;4.650;2023-03-01T00:35:28;21.60;;;13.30;;
37851;SDS011;23691;52.486;4.650;2023-03-01T00:37:54;23.27;;;14.43;;
37851;SDS011;23691;52.486;4.650;2023-03-01T00:40:29;22.05;;;14.27;;
37851;SDS011;23691;52.486;4.650;2023-03-01T00:42:55;24.67;;;14.80;;
37851;SDS011;23691;52.486;4.650;2023-03-01T00:45:21;25.38;;;15.20;;
37851;SDS011;23691;52.486;4.650;2023-03-01T00:47:47;23.60;;;14.98;;
37851;SDS011;23691;52.486;4.650;2023-03-01T00:50:14;23.67;;;15.50;;
37851;SDS011;23691;52.486;4.650;2023-03-01T00:52:39;24.90;;;14.35;;
37851;SDS011;23691;52.486;4.650;2023-03-01T00:55:05;22.67;;;15.00;;
37851;SDS011;23691;52.486;4.650;2023-03-01T00:57:31;21.67;;;14.00;;
37851;SDS011;23691;52.486;4.650;2023-03-01T00:59:57;21.75;;;14.27;;
37851;SDS011;23691;52.486;4.650;2023-03-01T01:02:22;22.13;;;14.02;;
37851;SDS011;23691;52.486;4.650;2023-03-01T01:04:48;23.70;;;14.52;;
37851;SDS011;23691;52.486;4.650;2023-03-01T01:07:13;26.00;;;15.07;;
37851;SDS011;23691;52.486;4.650;2023-03-01T01:09:39;23.70;;;14.43;;
37851;SDS011;23691;52.486;4.650;2023-03-01T01:12:05;22.95;;;14.30;;
37851;SDS011;23691;52.486;4.650;2023-03-01T01:14:31;24.20;;;14.70;;
37851;SDS011;23691;52.486;4.650;2023-03-01T01:16:56;21.38;;;14.40;;
37851;SDS011;23691;52.486;4.650;2023-03-01T01:19:22;23.77;;;14.82;;
37851;SDS011;23691;52.486;4.650;2023-03-01T01:21:48;23.10;;;14.82;;
37851;SDS011;23691;52.486;4.650;2023-03-01T01:24:14;22.40;;;14.77;;
37851;SDS011;23691;52.486;4.650;2023-03-01T01:26:41;22.40;;;14.15;;
37851;SDS011;23691;52.486;4.650;2023-03-01T01:29:07;19.17;;;8.68;;
37851;SDS011;23691;52.486;4.650;2023-03-01T01:31:34;25.80;;;14.88;;
37851;SDS011;23691;52.486;4.650;2023-03-01T01:34:01;24.77;;;15.80;;
37851;SDS011;23691;52.486;4.650;2023-03-01T01:36:27;20.80;;;8.20;;
37851;SDS011;23691;52.486;4.650;2023-03-01T01:38:53;16.90;;;8.38;;
37851;SDS011;23691;52.486;4.650;2023-03-01T01:41:19;21.33;;;14.00;;
37851;SDS011;23691;52.486;4.650;2023-03-01T01:43:46;21.80;;;14.23;;
37851;SDS011;23691;52.486;4.650;2023-03-01T01:46:32;17.75;;;8.05;;
37851;SDS011;23691;52.486;4.650;2023-03-01T01:49:04;21.10;;;8.03;;
37851;SDS011;23691;52.486;4.650;2023-03-01T01:51:33;23.58;;;15.20;;
37851;SDS011;23691;52.486;4.650;2023-03-01T01:54:03;23.08;;;14.43;;
37851;SDS011;23691;52.486;4.650;2023-03-01T01:56:53;24.95;;;14.27;;
37851;SDS011;23691;52.486;4.650;2023-03-01T01:59:25;24.52;;;14.93;;
37851;SDS011;23691;52.486;4.650;2023-03-01T02:01:53;24.40;;;14.40;;
37851;SDS011;23691;52.486;4.650;2023-03-01T02:04:19;22.48;;;15.13;;
37851;SDS011;23691;52.486;4.650;2023-03-01T02:06:48;22.15;;;15.45;;
37851;SDS011;23691;52.486;4.650;2023-03-01T02:09:19;25.25;;;16.02;;
37851;SDS011;23691;52.486;4.650;2023-03-01T02:11:46;26.27;;;15.70;;
37851;SDS011;23691;52.486;4.650;2023-03-01T02:14:14;24.00;;;15.95;;
37851;SDS011;23691;52.486;4.650;2023-03-01T02:16:40;24.48;;;15.73;;
37851;SDS011;23691;52.486;4.650;2023-03-01T02:19:07;23.42;;;8.65;;
37851;SDS011;23691;52.486;4.650;2023-03-01T02:21:56;19.50;;;9.07;;
37851;SDS011;23691;52.486;4.650;2023-03-01T02:27:25;21.67;;;8.65;;
37851;SDS011;23691;52.486;4.650;2023-03-01T02:29:59;20.63;;;9.43;;
37851;SDS011;23691;52.486;4.650;2023-03-01T02:32:25;18.63;;;8.98;;
37851;SDS011;23691;52.486;4.650;2023-03-01T02:34:52;24.30;;;16.90;;
37851;SDS011;23691;52.486;4.650;2023-03-01T02:37:19;19.17;;;9.48;;
37851;SDS011;23691;52.486;4.650;2023-03-01T02:39:50;19.45;;;8.60;;
37851;SDS011;23691;52.486;4.650;2023-03-01T02:42:23;25.38;;;16.48;;
37851;SDS011;23691;52.486;4.650;2023-03-01T02:44:54;17.95;;;8.63;;
37851;SDS011;23691;52.486;4.650;2023-03-01T02:47:19;26.00;;;16.45;;
37851;SDS011;23691;52.486;4.650;2023-03-01T02:49:45;23.25;;;15.50;;
37851;SDS011;23691;52.486;4.650;2023-03-01T02:52:14;18.75;;;8.63;;
37851;SDS011;23691;52.486;4.650;2023-03-01T02:54:52;21.50;;;8.48;;
37851;SDS011;23691;52.486;4.650;2023-03-01T02:57:20;24.92;;;15.90;;
37851;SDS011;23691;52.486;4.650;2023-03-01T02:59:47;23.75;;;16.02;;
37851;SDS011;23691;52.486;4.650;2023-03-01T03:02:18;23.45;;;15.98;;
37851;SDS011;23691;52.486;4.650;2023-03-01T03:05:07;25.92;;;16.60;;
37851;SDS011;23691;52.486;4.650;2023-03-01T03:07:39;18.60;;;8.70;;
37851;SDS011;23691;52.486;4.650;2023-03-01T03:10:07;24.30;;;16.00;;
37851;SDS011;23691;52.486;4.650;2023-03-01T03:12:36;18.40;;;8.77;;
37851;SDS011;23691;52.486;4.650;2023-03-01T03:15:02;24.00;;;15.77;;
37851;SDS011;23691;52.486;4.650;2023-03-01T03:17:33;24.65;;;16.20;;
37851;SDS011;23691;52.486;4.650;2023-03-01T03:20:02;21.95;;;9.15;;
37851;SDS011;23691;52.486;4.650;2023-03-01T03:22:29;19.00;;;8.90;;
37851;SDS011;23691;52.486;4.650;2023-03-01T03:24:55;18.65;;;8.43;;
37851;SDS011;23691;52.486;4.650;2023-03-01T03:27:21;20.73;;;9.30;;
37851;SDS011;23691;52.486;4.650;2023-03-01T03:29:46;20.05;;;9.00;;
37851;SDS011;23691;52.486;4.650;2023-03-01T03:32:11;20.58;;;9.25;;
37851;SDS011;23691;52.486;4.650;2023-03-01T03:34:37;24.90;;;16.15;;
37851;SDS011;23691;52.486;4.650;2023-03-01T03:37:02;23.08;;;8.80;;
37851;SDS011;23691;52.486;4.650;2023-03-01T03:39:28;26.70;;;17.02;;
37851;SDS011;23691;52.486;4.650;2023-03-01T03:41:54;25.77;;;16.77;;
37851;SDS011;23691;52.486;4.650;2023-03-01T03:44:20;21.08;;;9.13;;
37851;SDS011;23691;52.486;4.650;2023-03-01T03:46:45;17.65;;;8.35;;
37851;SDS011;23691;52.486;4.650;2023-03-01T03:49:11;20.80;;;8.48;;
37851;SDS011;23691;52.486;4.650;2023-03-01T03:51:36;21.60;;;9.40;;
37851;SDS011;23691;52.486;4.650;2023-03-01T03:54:01;20.40;;;8.88;;
37851;SDS011;23691;52.486;4.650;2023-03-01T03:56:27;19.95;;;9.13;;
37851;SDS011;23691;52.486;4.650;2023-03-01T03:58:52;18.42;;;8.45;;
37851;SDS011;23691;52.486;4.650;2023-03-01T04:01:18;19.88;;;8.98;;
37851;SDS011;23691;52.486;4.650;2023-03-01T04:03:44;22.15;;;8.85;;
37851;SDS011;23691;52.486;4.650;2023-03-01T04:06:12;21.17;;;9.27;;
37851;SDS011;23691;52.486;4.650;2023-03-01T04:08:39;21.33;;;9.07;;
37851;SDS011;23691;52.486;4.650;2023-03-01T04:11:05;18.75;;;7.93;;
37851;SDS011;23691;52.486;4.650;2023-03-01T04:13:50;20.27;;;7.88;;
37851;SDS011;23691;52.486;4.650;2023-03-01T04:16:16;26.13;;;17.10;;
37851;SDS011;23691;52.486;4.650;2023-03-01T04:18:42;21.63;;;9.25;;
37851;SDS011;23691;52.486;4.650;2023-03-01T04:21:08;20.55;;;9.82;;
37851;SDS011;23691;52.486;4.650;2023-03-01T04:23:33;25.60;;;16.75;;
37851;SDS011;23691;52.486;4.650;2023-03-01T04:25:59;18.77;;;9.05;;
37851;SDS011;23691;52.486;4.650;2023-03-01T04:28:25;24.33;;;8.75;;
37851;SDS011;23691;52.486;4.650;2023-03-01T04:30:53;19.27;;;8.38;;
37851;SDS011;23691;52.486;4.650;2023-03-01T04:33:20;19.40;;;8.93;;
37851;SDS011;23691;52.486;4.650;2023-03-01T04:35:46;18.90;;;7.88;;
37851;SDS011;23691;52.486;4.650;2023-03-01T04:38:14;19.50;;;8.00;;
37851;SDS011;23691;52.486;4.650;2023-03-01T04:40:40;16.52;;;8.32;;
37851;SDS011;23691;52.486;4.650;2023-03-01T04:43:08;19.02;;;8.25;;
37851;SDS011;23691;52.486;4.650;2023-03-01T04:45:35;19.70;;;8.25;;
37851;SDS011;23691;52.486;4.650;2023-03-01T04:48:01;17.27;;;7.50;;
37851;SDS011;23691;52.486;4.650;2023-03-01T04:50:27;18.25;;;7.85;;
37851;SDS011;23691;52.486;4.650;2023-03-01T04:52:52;20.73;;;9.45;;
37851;SDS011;23691;52.486;4.650;2023-03-01T04:55:18;17.10;;;8.30;;
37851;SDS011;23691;52.486;4.650;2023-03-01T04:57:43;23.90;;;15.88;;
37851;SDS011;23691;52.486;4.650;2023-03-01T05:00:12;22.00;;;8.85;;
37851;SDS011;23691;52.486;4.650;2023-03-01T05:05:27;18.83;;;8.57;;
37851;SDS011;23691;52.486;4.650;2023-03-01T05:07:56;24.15;;;16.25;;
37851;SDS011;23691;52.486;4.650;2023-03-01T05:10:24;22.00;;;9.18;;
37851;SDS011;23691;52.486;4.650;2023-03-01T05:12:50;19.07;;;8.73;;
37851;SDS011;23691;52.486;4.650;2023-03-01T05:15:17;21.45;;;8.80;;
37851;SDS011;23691;52.486;4.650;2023-03-01T05:17:43;25.15;;;17.05;;
37851;SDS011;23691;52.486;4.650;2023-03-01T05:20:09;20.10;;;8.45;;
37851;SDS011;23691;52.486;4.650;2023-03-01T05:22:35;19.17;;;8.85;;
37851;SDS011;23691;52.486;4.650;2023-03-01T05:25:01;20.08;;;9.23;;
37851;SDS011;23691;52.486;4.650;2023-03-01T05:27:28;20.52;;;9.40;;
37851;SDS011;23691;52.486;4.650;2023-03-01T05:29:54;19.85;;;8.82;;
37851;SDS011;23691;52.486;4.650;2023-03-01T05:32:20;24.02;;;10.23;;
37851;SDS011;23691;52.486;4.650;2023-03-01T05:34:46;21.30;;;10.27;;
37851;SDS011;23691;52.486;4.650;2023-03-01T05:37:11;20.58;;;9.70;;
37851;SDS011;23691;52.486;4.650;2023-03-01T05:39:38;21.90;;;9.77;;
37851;SDS011;23691;52.486;4.650;2023-03-01T05:42:09;20.92;;;9.43;;
37851;SDS011;23691;52.486;4.650;2023-03-01T05:44:35;21.40;;;10.15;;
37851;SDS011;23691;52.486;4.650;2023-03-01T05:47:01;21.02;;;9.70;;
37851;SDS011;23691;52.486;4.650;2023-03-01T05:49:26;22.33;;;10.60;;
37851;SDS011;23691;52.486;4.650;2023-03-01T05:51:52;23.98;;;11.52;;
37851;SDS011;23691;52.486;4.650;2023-03-01T05:54:19;24.60;;;9.98;;
37851;SDS011;23691;52.486;4.650;2023-03-01T05:56:45;25.60;;;10.77;;
37851;SDS011;23691;52.486;4.650;2023-03-01T05:59:12;24.00;;;10.60;;
37851;SDS011;23691;52.486;4.650;2023-03-01T06:01:38;21.50;;;9.60;;
37851;SDS011;23691;52.486;4.650;2023-03-01T06:04:04;25.90;;;10.90;;
37851;SDS011;23691;52.486;4.650;2023-03-01T06:06:30;22.15;;;9.80;;
37851;SDS011;23691;52.486;4.650;2023-03-01T06:08:59;21.05;;;9.45;;
37851;SDS011;23691;52.486;4.650;2023-03-01T06:11:24;27.90;;;10.57;;
37851;SDS011;23691;52.486;4.650;2023-03-01T06:13:50;23.75;;;10.13;;
37851;SDS011;23691;52.486;4.650;2023-03-01T06:16:15;23.35;;;10.20;;
37851;SDS011;23691;52.486;4.650;2023-03-01T06:18:41;32.92;;;22.02;;
37851;SDS011;23691;52.486;4.650;2023-03-01T06:21:07;29.40;;;13.30;;
37851;SDS011;23691;52.486;4.650;2023-03-01T06:23:33;25.48;;;11.23;;
37851;SDS011;23691;52.486;4.650;2023-03-01T06:25:59;25.70;;;12.25;;
37851;SDS011;23691;52.486;4.650;2023-03-01T06:28:25;25.95;;;11.07;;
37851;SDS011;23691;52.486;4.650;2023-03-01T06:30:50;28.05;;;12.23;;
37851;SDS011;23691;52.486;4.650;2023-03-01T06:33:16;32.40;;;12.10;;
37851;SDS011;23691;52.486;4.650;2023-03-01T06:35:45;32.17;;;12.68;;
37851;SDS011;23691;52.486;4.650;2023-03-01T06:38:11;31.58;;;12.77;;
37851;SDS011;23691;52.486;4.650;2023-03-01T06:40:39;46.30;;;25.48;;
37851;SDS011;23691;52.486;4.650;2023-03-01T06:43:05;42.47;;;26.75;;
37851;SDS011;23691;52.486;4.650;2023-03-01T06:45:32;28.65;;;12.38;;
37851;SDS011;23691;52.486;4.650;2023-03-01T06:48:06;25.58;;;11.38;;
37851;SDS011;23691;52.486;4.650;2023-03-01T06:50:33;30.27;;;12.60;;
37851;SDS011;23691;52.486;4.650;2023-03-01T06:55:28;28.43;;;12.03;;
37851;SDS011;23691;52.486;4.650;2023-03-01T06:58:00;28.75;;;12.05;;
37851;SDS011;23691;52.486;4.650;2023-03-01T07:00:28;26.08;;;11.15;;
37851;SDS011;23691;52.486;4.650;2023-03-01T07:02:54;25.35;;;10.95;;
37851;SDS011;23691;52.486;4.650;2023-03-01T07:05:20;32.03;;;22.17;;
37851;SDS011;23691;52.486;4.650;2023-03-01T07:07:45;24.20;;;11.27;;
37851;SDS011;23691;52.486;4.650;2023-03-01T07:10:11;26.98;;;11.18;;
37851;SDS011;23691;52.486;4.650;2023-03-01T07:12:37;32.50;;;21.90;;
37851;SDS011;23691;52.486;4.650;2023-03-01T07:15:03;23.67;;;10.82;;
37851;SDS011;23691;52.486;4.650;2023-03-01T07:17:29;24.60;;;11.00;;
37851;SDS011;23691;52.486;4.650;2023-03-01T07:19:57;26.08;;;11.68;;
37851;SDS011;23691;52.486;4.650;2023-03-01T07:22:22;23.17;;;10.32;;
37851;SDS011;23691;52.486;4.650;2023-03-01T07:24:48;23.75;;;10.98;;
37851;SDS011;23691;52.486;4.650;2023-03-01T07:27:13;27.85;;;11.02;;
37851;SDS011;23691;52.486;4.650;2023-03-01T07:29:38;23.25;;;10.63;;
37851;SDS011;23691;52.486;4.650;2023-03-01T07:32:04;25.63;;;10.40;;
37851;SDS011;23691;52.486;4.650;2023-03-01T07:34:30;20.45;;;9.50;;
37851;SDS011;23691;52.486;4.650;2023-03-01T07:36:56;22.45;;;10.68;;
37851;SDS011;23691;52.486;4.650;2023-03-01T07:39:21;24.83;;;11.10;;
37851;SDS011;23691;52.486;4.650;2023-03-01T07:41:48;23.88;;;11.98;;
37851;SDS011;23691;52.486;4.650;2023-03-01T07:44:14;30.42;;;21.38;;
37851;SDS011;23691;52.486;4.650;2023-03-01T07:46:40;27.95;;;12.45;;
37851;SDS011;23691;52.486;4.650;2023-03-01T07:49:06;29.70;;;13.73;;
37851;SDS011;23691;52.486;4.650;2023-03-01T07:51:31;39.33;;;27.17;;
37851;SDS011;23691;52.486;4.650;2023-03-01T07:53:56;32.13;;;15.45;;
37851;SDS011;23691;52.486;4.650;2023-03-01T07:56:22;42.13;;;28.73;;
37851;SDS011;23691;52.486;4.650;2023-03-01T07:58:47;35.47;;;18.35;;
37851;SDS011;23691;52.486;4.650;2023-03-01T08:01:17;36.53;;;15.85;;
37851;SDS011;23691;52.486;4.650;2023-03-01T08:03:45;28.00;;;14.77;;
37851;SDS011;23691;52.486;4.650;2023-03-01T08:06:11;31.30;;;14.90;;
37851;SDS011;23691;52.486;4.650;2023-03-01T08:08:37;32.65;;;15.27;;
37851;SDS011;23691;52.486;4.650;2023-03-01T08:11:04;44.30;;;28.50;;
37851;SDS011;23691;52.486;4.650;2023-03-01T08:13:31;31.52;;;15.45;;
37851;SDS011;23691;52.486;4.650;2023-03-01T08:16:03;30.02;;;14.23;;
37851;SDS011;23691;52.486;4.650;2023-03-01T08:18:30;33.40;;;15.05;;
37851;SDS011;23691;52.486;4.650;2023-03-01T08:21:01;32.42;;;14.07;;
37851;SDS011;23691;52.486;4.650;2023-03-01T08:23:27;28.85;;;14.73;;
37851;SDS011;23691;52.486;4.650;2023-03-01T08:25:52;39.65;;;27.17;;
37851;SDS011;23691;52.486;4.650;2023-03-01T08:28:18;30.45;;;15.70;;
37851;SDS011;23691;52.486;4.650;2023-03-01T08:30:43;39.38;;;26.67;;
37851;SDS011;23691;52.486;4.650;2023-03-01T08:33:15;39.30;;;26.25;;
37851;SDS011;23691;52.486;4.650;2023-03-01T08:35:40;38.05;;;26.95;;
37851;SDS011;23691;52.486;4.650;2023-03-01T08:38:08;36.55;;;25.45;;
37851;SDS011;23691;52.486;4.650;2023-03-01T08:40:37;31.58;;;16.05;;
37851;SDS011;23691;52.486;4.650;2023-03-01T08:43:02;30.08;;;14.85;;
37851;SDS011;23691;52.486;4.650;2023-03-01T08:45:28;36.10;;;24.15;;
37851;SDS011;23691;52.486;4.650;2023-03-01T08:47:53;32.85;;;22.45;;
37851;SDS011;23691;52.486;4.650;2023-03-01T08:50:19;33.03;;;22.38;;
37851;SDS011;23691;52.486;4.650;2023-03-01T08:52:44;33.58;;;22.70;;
37851;SDS011;23691;52.486;4.650;2023-03-01T08:55:09;31.58;;;22.08;;
37851;SDS011;23691;52.486;4.650;2023-03-01T08:57:35;31.50;;;21.60;;
37851;SDS011;23691;52.486;4.650;2023-03-01T09:00:00;31.33;;;21.73;;
37851;SDS011;23691;52.486;4.650;2023-03-01T09:02:26;30.65;;;21.58;;
37851;SDS011;23691;52.486;4.650;2023-03-01T09:04:51;31.38;;;22.42;;
37851;SDS011;23691;52.486;4.650;2023-03-01T09:07:16;36.05;;;23.30;;
37851;SDS011;23691;52.486;4.650;2023-03-01T09:09:42;33.65;;;23.02;;
37851;SDS011;23691;52.486;4.650;2023-03-01T09:12:07;33.92;;;23.70;;
37851;SDS011;23691;52.486;4.650;2023-03-01T09:14:33;36.03;;;24.27;;
37851;SDS011;23691;52.486;4.650;2023-03-01T09:16:58;38.92;;;25.98;;
37851;SDS011;23691;52.486;4.650;2023-03-01T09:19:27;36.97;;;24.02;;
37851;SDS011;23691;52.486;4.650;2023-03-01T09:21:53;36.85;;;23.23;;
37851;SDS011;23691;52.486;4.650;2023-03-01T09:24:19;35.80;;;24.20;;
37851;SDS011;23691;52.486;4.650;2023-03-01T09:26:46;34.45;;;23.70;;
37851;SDS011;23691;52.486;4.650;2023-03-01T09:29:12;35.75;;;23.52;;
37851;SDS011;23691;52.486;4.650;2023-03-01T09:31:38;35.17;;;23.38;;
37851;SDS011;23691;52.486;4.650;2023-03-01T09:34:04;33.90;;;23.63;;
37851;SDS011;23691;52.486;4.650;2023-03-01T09:36:33;35.05;;;23.77;;
37851;SDS011;23691;52.486;4.650;2023-03-01T09:38:59;33.88;;;23.45;;
37851;SDS011;23691;52.486;4.650;2023-03-01T09:44:22;37.67;;;24.92;;
37851;SDS011;23691;52.486;4.650;2023-03-01T09:47:30;37.30;;;25.88;;
37851;SDS011;23691;52.486;4.650;2023-03-01T09:50:18;38.30;;;26.80;;
37851;SDS011;23691;52.486;4.650;2023-03-01T09:52:46;37.83;;;25.92;;
37851;SDS011;23691;52.486;4.650;2023-03-01T09:55:17;35.97;;;24.88;;
37851;SDS011;23691;52.486;4.650;2023-03-01T09:57:53;37.47;;;25.05;;
37851;SDS011;23691;52.486;4.650;2023-03-01T10:00:30;36.70;;;25.05;;
37851;SDS011;23691;52.486;4.650;2023-03-01T10:06:19;37.25;;;25.23;;
37851;SDS011;23691;52.486;4.650;2023-03-01T10:08:55;37.22;;;24.88;;
37851;SDS011;23691;52.486;4.650;2023-03-01T10:11:24;34.88;;;23.60;;
37851;SDS011;23691;52.486;4.650;2023-03-01T10:19:04;34.25;;;23.38;;
37851;SDS011;23691;52.486;4.650;2023-03-01T10:21:31;30.77;;;22.23;;
37851;SDS011;23691;52.486;4.650;2023-03-01T10:24:08;34.03;;;22.92;;
37851;SDS011;23691;52.486;4.650;2023-03-01T10:26:54;32.20;;;21.95;;
37851;SDS011;23691;52.486;4.650;2023-03-01T10:29:23;32.55;;;21.67;;
37851;SDS011;23691;52.486;4.650;2023-03-01T10:31:55;31.00;;;22.17;;
37851;SDS011;23691;52.486;4.650;2023-03-01T10:36:57;31.23;;;21.58;;
37851;SDS011;23691;52.486;4.650;2023-03-01T10:39:33;33.97;;;22.05;;
37851;SDS011;23691;52.486;4.650;2023-03-01T10:42:00;38.95;;;24.92;;
37851;SDS011;23691;52.486;4.650;2023-03-01T10:47:16;30.67;;;20.33;;
37851;SDS011;23691;52.486;4.650;2023-03-01T10:52:19;25.23;;;17.33;;
37851;SDS011;23691;52.486;4.650;2023-03-01T10:54:55;30.98;;;20.33;;
37851;SDS011;23691;52.486;4.650;2023-03-01T10:57:30;24.98;;;16.05;;
37851;SDS011;23691;52.486;4.650;2023-03-01T11:00:17;23.55;;;16.23;;
37851;SDS011;23691;52.486;4.650;2023-03-01T11:02:49;36.38;;;21.77;;
37851;SDS011;23691;52.486;4.650;2023-03-01T11:05:20;22.75;;;14.95;;
37851;SDS011;23691;52.486;4.650;2023-03-01T11:08:04;21.25;;;13.80;;
37851;SDS011;23691;52.486;4.650;2023-03-01T11:10:34;22.00;;;12.93;;
37851;SDS011;23691;52.486;4.650;2023-03-01T11:13:14;19.08;;;11.32;;
37851;SDS011;23691;52.486;4.650;2023-03-01T11:15:42;17.88;;;11.50;;
37851;SDS011;23691;52.486;4.650;2023-03-01T11:18:22;21.02;;;12.55;;
37851;SDS011;23691;52.486;4.650;2023-03-01T11:20:48;19.20;;;11.73;;
37851;SDS011;23691;52.486;4.650;2023-03-01T11:23:17;17.55;;;10.88;;
37851;SDS011;23691;52.486;4.650;2023-03-01T11:25:45;15.57;;;9.90;;
37851;SDS011;23691;52.486;4.650;2023-03-01T11:28:17;17.50;;;9.48;;
37851;SDS011;23691;52.486;4.650;2023-03-01T11:30:54;17.45;;;9.68;;
37851;SDS011;23691;52.486;4.650;2023-03-01T11:38:54;19.10;;;10.48;;
37851;SDS011;23691;52.486;4.650;2023-03-01T11:41:23;14.90;;;9.25;;
37851;SDS011;23691;52.486;4.650;2023-03-01T11:43:52;18.95;;;10.20;;
37851;SDS011;23691;52.486;4.650;2023-03-01T11:52:03;16.90;;;10.52;;
37851;SDS011;23691;52.486;4.650;2023-03-01T11:57:34;16.80;;;8.82;;
37851;SDS011;23691;52.486;4.650;2023-03-01T12:08:36;17.73;;;8.85;;
37851;SDS011;23691;52.486;4.650;2023-03-01T12:16:28;14.30;;;8.15;;
37851;SDS011;23691;52.486;4.650;2023-03-01T12:19:15;16.48;;;8.43;;
37851;SDS011;23691;52.486;4.650;2023-03-01T12:27:55;17.27;;;9.10;;
37851;SDS011;23691;52.486;4.650;2023-03-01T12:50:16;15.45;;;8.43;;
37851;SDS011;23691;52.486;4.650;2023-03-01T12:52:46;15.15;;;9.07;;
37851;SDS011;23691;52.486;4.650;2023-03-01T12:55:24;14.93;;;8.77;;
37851;SDS011;23691;52.486;4.650;2023-03-01T12:58:00;17.65;;;9.93;;
37851;SDS011;23691;52.486;4.650;2023-03-01T13:00:44;16.42;;;9.25;;
37851;SDS011;23691;52.486;4.650;2023-03-01T13:03:23;16.02;;;8.50;;
37851;SDS011;23691;52.486;4.650;2023-03-01T13:06:14;20.38;;;10.52;;
37851;SDS011;23691;52.486;4.650;2023-03-01T13:08:56;18.33;;;8.90;;
37851;SDS011;23691;52.486;4.650;2023-03-01T13:11:26;19.13;;;9.65;;
37851;SDS011;23691;52.486;4.650;2023-03-01T13:13:52;14.38;;;8.40;;
37851;SDS011;23691;52.486;4.650;2023-03-01T13:16:46;16.27;;;8.70;;
37851;SDS011;23691;52.486;4.650;2023-03-01T13:19:22;19.50;;;11.45;;
37851;SDS011;23691;52.486;4.650;2023-03-01T13:21:54;15.88;;;8.95;;
37851;SDS011;23691;52.486;4.650;2023-03-01T13:29:30;19.98;;;10.90;;
37851;SDS011;23691;52.486;4.650;2023-03-01T13:32:19;18.58;;;10.02;;
37851;SDS011;23691;52.486;4.650;2023-03-01T13:34:47;20.15;;;10.05;;
37851;SDS011;23691;52.486;4.650;2023-03-01T13:37:21;18.23;;;10.88;;
37851;SDS011;23691;52.486;4.650;2023-03-01T13:39:51;20.35;;;10.85;;
37851;SDS011;23691;52.486;4.650;2023-03-01T13:42:31;22.73;;;12.05;;
37851;SDS011;23691;52.486;4.650;2023-03-01T13:45:16;19.80;;;11.23;;
37851;SDS011;23691;52.486;4.650;2023-03-01T13:47:46;20.27;;;10.70;;
37851;SDS011;23691;52.486;4.650;2023-03-01T13:50:22;19.75;;;11.27;;
37851;SDS011;23691;52.486;4.650;2023-03-01T13:53:11;22.42;;;12.00;;
37851;SDS011;23691;52.486;4.650;2023-03-01T13:55:42;22.08;;;12.40;;
37851;SDS011;23691;52.486;4.650;2023-03-01T14:00:42;26.83;;;13.98;;
37851;SDS011;23691;52.486;4.650;2023-03-01T14:05:33;28.63;;;16.35;;
37851;SDS011;23691;52.486;4.650;2023-03-01T14:07:59;28.17;;;15.50;;
37851;SDS011;23691;52.486;4.650;2023-03-01T14:10:28;28.38;;;15.02;;
37851;SDS011;23691;52.486;4.650;2023-03-01T14:13:08;26.77;;;13.52;;
37851;SDS011;23691;52.486;4.650;2023-03-01T14:16:02;26.02;;;14.27;;
37851;SDS011;23691;52.486;4.650;2023-03-01T14:21:30;25.88;;;14.02;;
37851;SDS011;23691;52.486;4.650;2023-03-01T14:23:58;29.00;;;14.77;;
37851;SDS011;23691;52.486;4.650;2023-03-01T14:26:24;26.67;;;14.02;;
37851;SDS011;23691;52.486;4.650;2023-03-01T14:28:49;21.42;;;12.35;;
37851;SDS011;23691;52.486;4.650;2023-03-01T14:34:01;22.67;;;12.52;;
37851;SDS011;23691;52.486;4.650;2023-03-01T14:36:28;21.02;;;12.40;;
37851;SDS011;23691;52.486;4.650;2023-03-01T14:38:55;24.88;;;13.10;;
37851;SDS011;23691;52.486;4.650;2023-03-01T14:41:21;22.02;;;12.50;;
37851;SDS011;23691;52.486;4.650;2023-03-01T14:44:12;22.65;;;12.27;;
37851;SDS011;23691;52.486;4.650;2023-03-01T14:46:40;22.70;;;13.60;;
37851;SDS011;23691;52.486;4.650;2023-03-01T14:49:12;23.52;;;13.20;;
37851;SDS011;23691;52.486;4.650;2023-03-01T14:51:42;21.23;;;12.98;;
37851;SDS011;23691;52.486;4.650;2023-03-01T14:54:23;22.75;;;12.38;;
37851;SDS011;23691;52.486;4.650;2023-03-01T14:56:52;21.25;;;11.30;;
37851;SDS011;23691;52.486;4.650;2023-03-01T14:59:22;21.77;;;12.73;;
37851;SDS011;23691;52.486;4.650;2023-03-01T15:01:49;21.38;;;13.70;;
37851;SDS011;23691;52.486;4.650;2023-03-01T15:04:19;23.17;;;13.35;;
37851;SDS011;23691;52.486;4.650;2023-03-01T15:06:47;25.15;;;14.70;;
37851;SDS011;23691;52.486;4.650;2023-03-01T15:09:16;24.83;;;13.13;;
37851;SDS011;23691;52.486;4.650;2023-03-01T15:11:42;23.63;;;13.25;;
37851;SDS011;23691;52.486;4.650;2023-03-01T15:16:54;21.55;;;12.70;;
37851;SDS011;23691;52.486;4.650;2023-03-01T15:19:20;20.38;;;12.57;;
37851;SDS011;23691;52.486;4.650;2023-03-01T15:21:51;25.55;;;13.45;;
37851;SDS011;23691;52.486;4.650;2023-03-01T15:24:17;24.25;;;12.27;;
37851;SDS011;23691;52.486;4.650;2023-03-01T15:26:55;20.15;;;12.07;;
37851;SDS011;23691;52.486;4.650;2023-03-01T15:29:27;21.63;;;12.10;;
37851;SDS011;23691;52.486;4.650;2023-03-01T15:32:03;21.75;;;12.75;;
37851;SDS011;23691;52.486;4.650;2023-03-01T15:34:31;21.65;;;12.55;;
37851;SDS011;23691;52.486;4.650;2023-03-01T15:36:58;21.00;;;12.77;;
37851;SDS011;23691;52.486;4.650;2023-03-01T15:42:12;20.08;;;11.80;;
37851;SDS011;23691;52.486;4.650;2023-03-01T15:44:50;13.65;;;8.25;;
37851;SDS011;23691;52.486;4.650;2023-03-01T15:47:33;20.55;;;12.07;;
37851;SDS011;23691;52.486;4.650;2023-03-01T15:50:00;25.70;;;13.68;;
37851;SDS011;23691;52.486;4.650;2023-03-01T15:52:31;20.48;;;12.32;;
37851;SDS011;23691;52.486;4.650;2023-03-01T15:55:05;19.63;;;11.88;;
37851;SDS011;23691;52.486;4.650;2023-03-01T15:57:39;22.95;;;12.43;;
37851;SDS011;23691;52.486;4.650;2023-03-01T16:00:04;21.25;;;11.20;;
37851;SDS011;23691;52.486;4.650;2023-03-01T16:02:36;20.48;;;11.60;;
37851;SDS011;23691;52.486;4.650;2023-03-01T16:05:03;21.02;;;11.73;;
37851;SDS011;23691;52.486;4.650;2023-03-01T16:07:28;18.67;;;10.77;;
37851;SDS011;23691;52.486;4.650;2023-03-01T16:09:54;19.98;;;11.43;;
37851;SDS011;23691;52.486;4.650;2023-03-01T16:12:19;20.23;;;11.50;;
37851;SDS011;23691;52.486;4.650;2023-03-01T16:14:46;17.90;;;10.18;;
37851;SDS011;23691;52.486;4.650;2023-03-01T16:17:13;17.95;;;10.35;;
37851;SDS011;23691;52.486;4.650;2023-03-01T16:19:38;19.48;;;11.20;;